Time;durP1;ratioP1;P1;durP2;ratioP2;P2;SDS_P1;SDS_P2;PMS_P1;PMS_P2;Temp;Humidity;BMP_temperature;BMP_pressure;BME280_temperature;BME280_humidity;BME280_pressure;Samples;Min_cycle;Max_cycle;Signal;HPM_P1;HPM_P2
2022/08/16 00:03:43;;;;;;;15.32;12.15;;;19.70;99.90;;;;;;10207802;29;20254;-85
2022/08/16 00:08:46;;;;;;;15.32;12.25;;;19.60;99.90;;;;;;10206652;29;20254;-86
2022/08/16 00:13:49;;;;;;;17.27;12.95;;;19.40;99.90;;;;;;10207419;29;20319;-86
2022/08/16 00:18:57;;;;;;;15.90;12.35;;;19.30;99.90;;;;;;10207755;29;20238;-86
2022/08/16 00:24:00;;;;;;;14.02;12.52;;;19.10;99.90;;;;;;10207080;29;20262;-86
2022/08/16 00:29:06;;;;;;;15.13;12.98;;;19.00;99.90;;;;;;10208498;29;20247;-86
2022/08/16 00:34:09;;;;;;;19.35;13.20;;;19.00;99.90;;;;;;10206863;29;20286;-86
2022/08/16 00:39:20;;;;;;;15.55;12.93;;;18.90;99.90;;;;;;10207809;29;20263;-86
2022/08/16 00:44:23;;;;;;;14.32;12.82;;;18.80;99.90;;;;;;10208051;29;20827;-86
2022/08/16 00:49:35;;;;;;;17.10;12.80;;;18.70;99.90;;;;;;10206207;29;20341;-86
2022/08/16 00:54:41;;;;;;;16.10;13.77;;;18.80;99.90;;;;;;10226581;28;20684;-86
2022/08/16 00:59:46;;;;;;;21.45;14.32;;;18.80;99.90;;;;;;10198528;29;20274;-86
2022/08/16 01:05:01;;;;;;;18.67;15.10;;;18.70;99.90;;;;;;10204194;29;20254;-86
2022/08/16 01:10:13;;;;;;;19.55;14.55;;;18.80;99.90;;;;;;10213253;29;20231;-86
2022/08/16 01:15:18;;;;;;;18.55;15.10;;;18.80;99.90;;;;;;10229186;28;20259;-86
2022/08/16 01:20:31;;;;;;;17.73;14.88;;;18.80;99.90;;;;;;10228723;29;20648;-86
2022/08/16 01:25:40;;;;;;;22.52;14.18;;;18.80;99.90;;;;;;10213526;29;20639;-86
2022/08/16 01:30:50;;;;;;;22.95;15.13;;;18.80;99.90;;;;;;10222197;29;20317;-86
2022/08/16 01:36:05;;;;;;;23.13;14.52;;;18.70;99.90;;;;;;10213902;29;20680;-87
2022/08/16 01:41:22;;;;;;;21.75;15.48;;;18.60;99.90;;;;;;10212620;29;20562;-86
2022/08/16 01:46:38;;;;;;;22.50;14.90;;;18.60;99.90;;;;;;10212807;29;20210;-87
2022/08/16 01:52:04;;;;;;;20.40;14.75;;;18.60;99.90;;;;;;10187657;29;20716;-87
2022/08/16 01:57:32;;;;;;;21.13;14.98;;;18.50;99.90;;;;;;10220418;29;20238;-87
2022/08/16 02:02:37;;;;;;;20.27;14.32;;;18.50;99.90;;;;;;10212333;29;20255;-86
2022/08/16 02:07:44;;;;;;;19.30;14.45;;;18.40;99.90;;;;;;10210449;29;20250;-86
2022/08/16 02:12:50;;;;;;;21.25;13.02;;;18.30;99.90;;;;;;10211994;29;20549;-86
2022/08/16 02:18:04;;;;;;;17.88;14.07;;;18.20;99.90;;;;;;10226697;29;20215;-86
2022/08/16 02:23:09;;;;;;;22.10;14.95;;;18.20;99.90;;;;;;10211375;29;20266;-87
2022/08/16 02:28:12;;;;;;;16.30;14.25;;;18.10;99.90;;;;;;10210801;29;20293;-86
2022/08/16 02:33:23;;;;;;;23.23;15.32;;;18.00;99.90;;;;;;10210467;29;20207;-86
2022/08/16 02:38:56;;;;;;;16.92;14.32;;;18.00;99.90;;;;;;10214547;29;20595;-86
2022/08/16 02:43:59;;;;;;;26.55;15.07;;;18.00;99.90;;;;;;10211453;29;20199;-87
2022/08/16 02:49:03;;;;;;;22.05;15.05;;;18.00;99.90;;;;;;10210869;29;20739;-86
2022/08/16 02:54:13;;;;;;;20.10;14.95;;;18.00;99.90;;;;;;10209631;29;20243;-87
2022/08/16 02:59:20;;;;;;;20.20;15.90;;;18.10;99.90;;;;;;10225370;28;20206;-86
2022/08/16 03:04:23;;;;;;;21.65;15.80;;;18.00;99.90;;;;;;10208090;29;20262;-87
2022/08/16 03:09:46;;;;;;;23.50;16.00;;;17.90;99.90;;;;;;10207875;29;20337;-86
2022/08/16 03:14:53;;;;;;;21.08;15.65;;;17.80;99.90;;;;;;10193246;29;20278;-86
2022/08/16 03:19:56;;;;;;;20.50;16.10;;;17.70;99.90;;;;;;10207346;28;20242;-86
2022/08/16 03:25:13;;;;;;;21.65;16.27;;;17.70;99.90;;;;;;10208547;29;20249;-86
2022/08/16 03:30:29;;;;;;;19.80;14.88;;;17.70;99.90;;;;;;10193848;29;20257;-86
2022/08/16 03:35:38;;;;;;;17.73;14.73;;;17.60;99.90;;;;;;10192987;29;20214;-86
2022/08/16 03:40:57;;;;;;;19.85;15.55;;;17.50;99.90;;;;;;10190980;29;20245;-87
2022/08/16 03:46:03;;;;;;;20.35;16.58;;;17.50;99.90;;;;;;10207860;29;20689;-86
2022/08/16 03:51:11;;;;;;;19.88;15.90;;;17.40;99.90;;;;;;10207758;29;20266;-91
2022/08/16 03:56:24;;;;;;;20.10;14.45;;;17.50;99.90;;;;;;10192899;29;20203;-91
2022/08/16 04:01:27;;;;;;;16.50;12.50;;;19.10;99.90;;;;;;10206831;29;20239;-86
2022/08/16 04:06:31;;;;;;;17.40;12.07;;;20.80;99.90;;;;;;10219727;29;20278;-86
2022/08/16 04:11:35;;;;;;;15.10;10.88;;;21.80;99.90;;;;;;10220014;29;20265;-86
2022/08/16 04:16:39;;;;;;;13.77;11.40;;;22.50;99.90;;;;;;10209290;29;20289;-86
2022/08/16 04:21:59;;;;;;;17.73;11.05;;;22.90;99.90;;;;;;10204486;29;20246;-86
2022/08/16 04:27:17;;;;;;;13.00;10.63;;;23.20;99.90;;;;;;10202355;29;20702;-86
2022/08/16 04:32:20;;;;;;;11.13;9.55;;;23.60;99.90;;;;;;10199123;29;20254;-86
2022/08/16 04:37:27;;;;;;;12.82;10.35;;;23.90;99.90;;;;;;10214831;29;20297;-86
2022/08/16 04:42:41;;;;;;;28.58;10.52;;;24.10;99.90;;;;;;10214563;29;20692;-86
2022/08/16 04:47:45;;;;;;;13.48;9.02;;;24.20;99.90;;;;;;10197784;29;20242;-86
2022/08/16 04:52:59;;;;;;;11.05;9.35;;;24.40;99.90;;;;;;10229451;29;20246;-86
2022/08/16 04:58:06;;;;;;;12.23;9.73;;;24.50;99.90;;;;;;10214035;29;20202;-86
2022/08/16 05:03:31;;;;;;;11.57;9.70;;;24.60;99.90;;;;;;10217597;29;20278;-87
2022/08/16 05:08:35;;;;;;;11.57;10.38;;;24.70;99.90;;;;;;10229402;28;20258;-86
2022/08/16 05:13:48;;;;;;;11.25;9.32;;;24.70;99.90;;;;;;10212862;29;20800;-87
2022/08/16 05:18:57;;;;;;;10.85;9.15;;;24.80;99.90;;;;;;10197414;29;20238;-87
2022/08/16 05:24:02;;;;;;;12.95;9.60;;;24.70;99.90;;;;;;10212006;29;20246;-86
2022/08/16 05:29:09;;;;;;;13.77;10.27;;;24.80;99.90;;;;;;10196557;29;20270;-87
2022/08/16 05:34:31;;;;;;;11.80;9.85;;;24.90;99.90;;;;;;10227594;28;20263;-87
2022/08/16 05:39:34;;;;;;;10.40;9.32;;;24.90;99.90;;;;;;10174877;29;20251;-87
2022/08/16 05:44:43;;;;;;;10.48;9.38;;;25.00;99.90;;;;;;10191403;29;20246;-87
2022/08/16 05:49:52;;;;;;;11.35;9.60;;;25.00;99.90;;;;;;10196113;29;20321;-86
2022/08/16 05:54:55;;;;;;;11.57;9.35;;;25.00;99.90;;;;;;10210341;29;20242;-86
2022/08/16 06:00:12;;;;;;;12.32;10.55;;;25.00;99.90;;;;;;10195278;29;20242;-86
2022/08/16 06:05:26;;;;;;;10.43;9.02;;;25.00;99.90;;;;;;10210793;29;20246;-87
2022/08/16 06:10:30;;;;;;;9.63;8.73;;;25.10;99.90;;;;;;10210115;29;20676;-87
2022/08/16 06:15:37;;;;;;;10.90;9.77;;;25.10;99.90;;;;;;10209455;29;20305;-87
2022/08/16 06:20:43;;;;;;;11.20;9.40;;;25.10;99.90;;;;;;10235198;28;20247;-86
2022/08/16 06:26:00;;;;;;;13.77;10.52;;;25.00;99.90;;;;;;10226195;29;20242;-87
2022/08/16 06:31:10;;;;;;;9.98;8.57;;;25.00;99.90;;;;;;10208908;29;20830;-88
2022/08/16 06:36:16;;;;;;;10.82;9.43;;;25.00;99.90;;;;;;10210244;29;20235;-88
2022/08/16 06:41:32;;;;;;;10.00;8.77;;;25.00;99.90;;;;;;10209520;29;20309;-88
2022/08/16 06:46:50;;;;;;;10.48;9.38;;;25.20;99.90;;;;;;10208010;29;20273;-87
2022/08/16 06:51:54;;;;;;;12.05;9.32;;;25.30;99.90;;;;;;10208503;29;20329;-87
2022/08/16 06:57:10;;;;;;;12.00;9.05;;;25.30;99.90;;;;;;10185465;29;20231;-87
2022/08/16 07:02:19;;;;;;;12.93;10.48;;;25.30;99.90;;;;;;10217645;28;20238;-88
2022/08/16 07:07:38;;;;;;;10.27;9.18;;;25.30;99.90;;;;;;10208131;29;20299;-87
2022/08/16 07:12:49;;;;;;;9.50;8.55;;;25.20;99.90;;;;;;10201347;29;20267;-87
2022/08/16 07:18:14;;;;;;;10.13;9.15;;;25.20;99.90;;;;;;10196446;29;20298;-87
2022/08/16 07:23:20;;;;;;;11.27;9.60;;;25.30;99.90;;;;;;10207402;29;21057;-88
2022/08/16 07:28:41;;;;;;;13.25;11.73;;;25.40;99.90;;;;;;10223202;28;20254;-87
2022/08/16 07:33:47;;;;;;;28.90;12.85;;;25.60;99.90;;;;;;10207140;28;20230;-88
2022/08/16 07:39:02;;;;;;;10.10;8.80;;;25.70;99.90;;;;;;10216958;29;20241;-87
2022/08/16 07:44:10;;;;;;;14.35;11.02;;;25.80;99.90;;;;;;10222633;29;20302;-87
2022/08/16 07:49:19;;;;;;;12.63;11.32;;;25.80;99.90;;;;;;10206445;29;20262;-87
2022/08/16 07:54:22;;;;;;;9.77;8.77;;;25.90;99.90;;;;;;10206056;29;20266;-88
2022/08/16 07:59:43;;;;;;;9.80;8.57;;;26.00;99.90;;;;;;10220697;29;20613;-87
2022/08/16 08:04:50;;;;;;;11.20;10.10;;;26.00;99.90;;;;;;10228372;28;20242;-87
2022/08/16 08:09:54;;;;;;;9.13;8.23;;;26.10;99.90;;;;;;10202324;29;20262;-87
2022/08/16 08:14:58;;;;;;;9.15;8.32;;;26.20;99.90;;;;;;10202371;29;20258;-87
2022/08/16 08:20:03;;;;;;;13.38;9.63;;;26.30;99.90;;;;;;10233535;28;20242;-88
2022/08/16 08:25:07;;;;;;;11.40;9.25;;;26.40;99.90;;;;;;10233213;28;20235;-88
2022/08/16 08:30:15;;;;;;;11.13;9.52;;;26.60;99.90;;;;;;10232747;28;20483;-88
2022/08/16 08:35:39;;;;;;;11.48;8.90;;;26.60;99.90;;;;;;10217328;29;20207;-88
2022/08/16 08:40:44;;;;;;;10.00;9.10;;;26.90;99.90;;;;;;10218691;29;20778;-87
2022/08/16 08:45:48;;;;;;;12.23;9.77;;;26.80;99.90;;;;;;10221842;29;20768;-89
2022/08/16 08:50:56;;;;;;;11.30;10.20;;;26.80;99.90;;;;;;10218561;29;20860;-88
2022/08/16 08:55:59;;;;;;;12.02;9.10;;;26.90;99.90;;;;;;10219040;28;20297;-87
2022/08/16 09:01:27;;;;;;;11.57;9.35;;;26.90;99.90;;;;;;10216652;29;20250;-88
2022/08/16 09:06:40;;;;;;;15.55;9.63;;;27.00;99.90;;;;;;10233592;29;20301;-88
2022/08/16 09:11:49;;;;;;;14.75;9.07;;;27.10;99.90;;;;;;10233731;29;20317;-88
2022/08/16 09:17:08;;;;;;;10.57;8.68;;;27.20;99.90;;;;;;9883570;28;9999966;-86
2022/08/16 09:22:26;;;;;;;11.85;10.55;;;27.40;99.90;;;;;;10231042;29;20215;-92
2022/08/16 09:27:32;;;;;;;10.65;9.45;;;27.50;99.90;;;;;;10228511;28;20211;-90
2022/08/16 09:32:55;;;;;;;11.85;10.60;;;27.60;99.90;;;;;;10196287;29;20934;-90
2022/08/16 09:37:57;;;;;;;12.10;10.32;;;27.80;99.90;;;;;;10208834;29;20235;-90
2022/08/16 09:43:03;;;;;;;13.02;10.60;;;28.00;99.90;;;;;;10209465;29;20227;-90
2022/08/16 09:48:08;;;;;;;11.80;10.45;;;28.10;99.90;;;;;;10208579;28;20621;-90
2022/08/16 09:53:31;;;;;;;15.77;11.35;;;28.10;99.90;;;;;;10194543;29;20324;-91
2022/08/16 09:58:34;;;;;;;12.48;11.18;;;28.00;99.90;;;;;;10207857;28;20293;-89
2022/08/16 10:03:43;;;;;;;12.15;10.48;;;28.10;99.90;;;;;;10215096;29;20277;-90
2022/08/16 10:09:07;;;;;;;13.73;10.30;;;28.00;99.90;;;;;;10259745;28;20700;-90
2022/08/16 10:14:12;;;;;;;12.13;10.48;;;27.90;99.90;;;;;;9905289;28;10000748;-90
2022/08/16 10:19:17;;;;;;;13.38;10.85;;;27.90;99.90;;;;;;10210949;29;20263;-92
2022/08/16 10:24:21;;;;;;;15.77;10.40;;;28.10;99.90;;;;;;10241824;29;20255;-93
2022/08/16 10:29:30;;;;;;;11.98;9.88;;;28.20;99.90;;;;;;10225626;29;20259;-94
2022/08/16 10:34:53;;;;;;;12.73;10.05;;;;;;;;;;10248904;29;20206;-93
2022/08/16 10:39:57;;;;;;;11.35;8.93;;;28.70;99.90;;;;;;10226493;29;20207;-93
2022/08/16 10:45:01;;;;;;;10.48;9.15;;;28.80;99.90;;;;;;10226595;29;20255;-94
2022/08/16 10:50:10;;;;;;;11.20;8.77;;;28.80;99.90;;;;;;10234526;29;20226;-93
2022/08/16 10:55:22;;;;;;;10.98;9.30;;;29.00;99.90;;;;;;10244032;29;20206;-94
2022/08/16 11:00:48;;;;;;;10.82;9.13;;;29.10;99.90;;;;;;10242974;28;20207;-93
2022/08/16 11:05:59;;;;;;;10.15;8.93;;;29.20;99.90;;;;;;10223015;29;20239;-92
2022/08/16 11:11:07;;;;;;;10.45;8.40;;;29.30;99.90;;;;;;10234196;29;20227;-94
2022/08/16 11:16:22;;;;;;;10.18;9.00;;;29.30;99.90;;;;;;10236259;29;20736;-92
2022/08/16 11:21:45;;;;;;;9.55;8.55;;;29.30;99.90;;;;;;10246158;29;20282;-93
2022/08/16 11:27:12;;;;;;;9.07;7.97;;;29.30;99.90;;;;;;10240669;29;20211;-93
2022/08/16 11:32:29;;;;;;;9.38;8.45;;;29.30;99.90;;;;;;10225145;29;20592;-93
2022/08/16 11:37:35;;;;;;;10.10;8.85;;;29.40;99.90;;;;;;10185292;29;20207;-93
2022/08/16 11:43:00;;;;;;;8.52;7.72;;;29.40;99.90;;;;;;10213036;29;20239;-92
2022/08/16 11:48:06;;;;;;;9.00;8.07;;;29.40;99.90;;;;;;10233568;29;20318;-92
2022/08/16 11:53:10;;;;;;;9.23;7.70;;;29.30;99.90;;;;;;10247771;28;20222;-92
2022/08/16 11:58:17;;;;;;;9.63;8.57;;;29.30;99.90;;;;;;10230033;29;20203;-94
2022/08/16 12:03:23;;;;;;;8.27;7.47;;;29.40;99.90;;;;;;10205976;29;20211;-93
2022/08/16 12:08:34;;;;;;;9.32;7.95;;;29.40;99.90;;;;;;10224633;29;20637;-93
2022/08/16 12:13:37;;;;;;;8.43;7.55;;;29.50;99.90;;;;;;10225247;28;20235;-93
2022/08/16 12:18:39;;;;;;;10.05;7.63;;;29.40;99.90;;;;;;10212584;29;20207;-94
2022/08/16 12:23:42;;;;;;;8.90;7.60;;;29.60;99.90;;;;;;10211540;29;20680;-94
2022/08/16 12:28:46;;;;;;;8.43;7.63;;;29.50;99.90;;;;;;10210349;29;20219;-94
2022/08/16 12:33:57;;;;;;;9.07;8.15;;;29.50;99.90;;;;;;10230080;29;20293;-93
2022/08/16 12:39:03;;;;;;;9.95;8.95;;;29.40;99.90;;;;;;10226616;29;20217;-92
2022/08/16 12:44:09;;;;;;;9.75;7.47;;;29.50;99.90;;;;;;10214537;29;20886;-93
2022/08/16 12:49:22;;;;;;;8.45;7.55;;;29.50;99.90;;;;;;10211902;29;20211;-91
2022/08/16 12:54:24;;;;;;;8.05;7.25;;;29.40;98.60;;;;;;10221661;29;20278;-93
2022/08/16 12:59:27;;;;;;;9.35;6.93;;;29.60;99.90;;;;;;10225987;29;20258;-93
2022/08/16 13:04:34;;;;;;;8.95;7.53;;;29.70;99.90;;;;;;10223650;28;20234;-92
2022/08/16 13:09:46;;;;;;;8.98;8.10;;;29.80;97.60;;;;;;10197341;29;20215;-92
2022/08/16 13:14:50;;;;;;;8.20;7.40;;;29.60;99.00;;;;;;10213948;29;20309;-94
2022/08/16 13:19:55;;;;;;;9.65;7.15;;;29.70;99.90;;;;;;10198708;29;20657;-93
2022/08/16 13:25:11;;;;;;;9.18;8.23;;;29.80;97.30;;;;;;10230363;29;20207;-93
2022/08/16 13:30:21;;;;;;;10.65;9.18;;;29.80;99.90;;;;;;10244097;29;20262;-93
2022/08/16 13:35:45;;;;;;;8.02;7.22;;;29.40;99.90;;;;;;10197149;29;20199;-94
2022/08/16 13:41:07;;;;;;;11.80;7.85;;;29.90;99.90;;;;;;10205791;29;20210;-93
2022/08/16 13:46:10;;;;;;;8.48;7.65;;;29.90;99.90;;;;;;10222331;29;20215;-93
2022/08/16 13:51:17;;;;;;;12.43;8.07;;;29.80;99.90;;;;;;10221082;29;20273;-93
2022/08/16 13:56:20;;;;;;;11.68;8.60;;;29.80;98.10;;;;;;10218375;29;20300;-94
2022/08/16 14:01:29;;;;;;;12.82;7.93;;;29.50;99.90;;;;;;10232088;29;20255;-94
2022/08/16 14:06:37;;;;;;;7.75;6.65;;;29.70;99.90;;;;;;10218479;29;20211;-92
2022/08/16 14:11:41;;;;;;;9.48;6.80;;;29.80;97.60;;;;;;10215384;28;20632;-93
2022/08/16 14:16:44;;;;;;;8.70;7.88;;;29.80;97.70;;;;;;10237788;28;20227;-92
2022/08/16 14:21:47;;;;;;;8.20;7.40;;;29.80;99.90;;;;;;10218564;29;20207;-93
2022/08/16 14:27:11;;;;;;;11.93;7.97;;;29.80;97.60;;;;;;10196229;29;20617;-92
2022/08/16 14:32:18;;;;;;;18.70;10.60;;;29.80;98.50;;;;;;10194416;29;20231;-92
2022/08/16 14:37:37;;;;;;;16.58;10.38;;;29.50;99.90;;;;;;10212804;29;20226;-92
2022/08/16 14:42:41;;;;;;;13.63;7.65;;;29.20;99.90;;;;;;10219237;29;20206;-93
2022/08/16 14:47:45;;;;;;;8.93;6.78;;;30.30;96.50;;;;;;10201975;29;20211;-94
2022/08/16 14:53:06;;;;;;;15.60;8.15;;;30.10;95.40;;;;;;10201740;29;20258;-92
2022/08/16 14:58:09;;;;;;;8.35;7.18;;;30.50;95.50;;;;;;10196341;29;20203;-91
2022/08/16 15:03:22;;;;;;;11.20;7.43;;;30.20;95.50;;;;;;10212567;29;20203;-93
2022/08/16 15:08:24;;;;;;;14.95;9.43;;;30.30;95.00;;;;;;10212903;29;20258;-93
2022/08/16 15:13:41;;;;;;;8.10;7.20;;;30.20;96.60;;;;;;10229563;29;20262;-92
2022/08/16 15:18:44;;;;;;;7.95;6.72;;;30.20;97.00;;;;;;10212754;29;20207;-94
2022/08/16 15:23:48;;;;;;;9.25;7.45;;;30.20;95.50;;;;;;10188293;29;20259;-91
2022/08/16 15:28:50;;;;;;;19.02;11.75;;;30.00;94.70;;;;;;10232378;28;20215;-93
2022/08/16 15:33:54;;;;;;;18.83;12.10;;;29.60;99.90;;;;;;10190123;29;20231;-92
2022/08/16 15:38:59;;;;;;;7.30;6.63;;;29.00;99.90;;;;;;10184987;29;20212;-93
2022/08/16 15:44:24;;;;;;;8.57;6.43;;;28.90;98.80;;;;;;10211288;29;20818;-93
2022/08/16 15:49:27;;;;;;;8.23;5.60;;;29.70;94.90;;;;;;10210462;28;20731;-93
2022/08/16 15:54:42;;;;;;;11.30;9.82;;;29.80;94.40;;;;;;10211918;29;20237;-94
2022/08/16 15:59:55;;;;;;;7.15;6.45;;;29.20;99.90;;;;;;10218090;29;20203;-91
2022/08/16 16:05:17;;;;;;;12.18;8.63;;;29.20;97.40;;;;;;10224685;29;20575;-94
2022/08/16 16:10:21;;;;;;;16.80;10.52;;;28.90;99.90;;;;;;10219504;29;20749;-92
2022/08/16 16:15:34;;;;;;;13.82;10.25;;;29.50;99.90;;;;;;10214938;29;20230;-92
2022/08/16 16:20:46;;;;;;;11.15;10.00;;;28.90;99.90;;;;;;10227752;29;20230;-92
2022/08/16 16:25:51;;;;;;;14.35;8.95;;;28.60;99.90;;;;;;10200370;29;20266;-93
2022/08/16 16:30:54;;;;;;;13.20;9.57;;;28.50;99.90;;;;;;10218936;29;20222;-92
2022/08/16 16:36:02;;;;;;;10.57;7.90;;;28.60;99.90;;;;;;10206382;29;20211;-93
2022/08/16 16:41:08;;;;;;;11.63;9.23;;;29.00;99.90;;;;;;10218212;29;20627;-92
2022/08/16 16:46:13;;;;;;;11.93;9.50;;;28.70;99.90;;;;;;10216739;29;20238;-92
2022/08/16 16:51:38;;;;;;;11.27;7.38;;;28.50;99.90;;;;;;10216736;29;20310;-94
2022/08/16 16:56:42;;;;;;;8.40;7.47;;;28.70;99.90;;;;;;10216378;29;20250;-94
2022/08/16 17:01:51;;;;;;;11.15;7.88;;;29.30;99.90;;;;;;10216170;29;20211;-92
2022/08/16 17:07:14;;;;;;;12.77;7.70;;;29.50;99.90;;;;;;10203176;29;20266;-93
2022/08/16 17:12:18;;;;;;;31.60;8.90;;;29.20;99.90;;;;;;10215112;29;20259;-92
2022/08/16 17:17:40;;;;;;;7.93;7.13;;;29.00;99.90;;;;;;10215636;29;20254;-93
2022/08/16 17:23:03;;;;;;;10.85;7.93;;;28.80;99.90;;;;;;10216602;29;20218;-93
2022/08/16 17:28:07;;;;;;;11.48;8.77;;;28.60;99.90;;;;;;10214456;29;20199;-92
2022/08/16 17:33:30;;;;;;;8.48;6.97;;;28.40;99.90;;;;;;10218144;29;20239;-91
2022/08/16 17:38:38;;;;;;;9.35;8.27;;;28.10;99.90;;;;;;10214626;29;20207;-93
2022/08/16 17:43:47;;;;;;;12.30;7.38;;;27.90;99.90;;;;;;10216196;29;20207;-93
2022/08/16 17:48:50;;;;;;;8.82;8.02;;;27.70;99.90;;;;;;10179051;29;20196;-93
2022/08/16 17:53:53;;;;;;;8.50;7.00;;;27.50;99.90;;;;;;10178727;29;20228;-91
2022/08/16 17:58:55;;;;;;;11.35;8.13;;;27.40;99.90;;;;;;10183489;29;20211;-93
2022/08/16 18:03:58;;;;;;;10.35;9.25;;;27.20;99.90;;;;;;10234271;29;20254;-93
2022/08/16 18:09:11;;;;;;;9.52;8.43;;;27.20;99.90;;;;;;10218303;29;20195;-93
2022/08/16 18:14:17;;;;;;;8.82;7.93;;;27.00;99.90;;;;;;10201823;29;20223;-93
2022/08/16 18:19:41;;;;;;;10.93;8.25;;;27.00;99.90;;;;;;10204081;29;20258;-93
2022/08/16 18:24:49;;;;;;;9.02;8.13;;;26.90;99.90;;;;;;10217235;29;20258;-93
2022/08/16 18:29:51;;;;;;;9.32;8.40;;;26.80;99.90;;;;;;10201869;29;20631;-94
2022/08/16 18:34:54;;;;;;;9.32;7.95;;;26.80;99.90;;;;;;10232970;28;20274;-93
2022/08/16 18:39:56;;;;;;;10.30;8.05;;;26.80;99.90;;;;;;10214668;29;20273;-93
2022/08/16 18:45:02;;;;;;;7.93;7.13;;;26.70;99.90;;;;;;10224757;29;20199;-93
2022/08/16 18:50:05;;;;;;;8.23;7.53;;;26.70;99.90;;;;;;10230726;29;20203;-96
2022/08/16 18:55:14;;;;;;;8.85;8.05;;;;;;;;;;10218620;28;20905;-94
2022/08/16 19:00:22;;;;;;;8.63;7.75;;;26.60;99.90;;;;;;10208879;29;20211;-92
2022/08/16 19:05:28;;;;;;;10.05;8.48;;;26.60;99.90;;;;;;10247854;29;20234;-94
2022/08/16 19:10:34;;;;;;;8.75;7.70;;;26.50;99.90;;;;;;10207060;29;20207;-94
2022/08/16 19:15:37;;;;;;;8.55;7.68;;;26.50;99.90;;;;;;10213202;29;20234;-94
2022/08/16 19:20:42;;;;;;;8.50;7.55;;;26.50;99.90;;;;;;10198532;29;20199;-94
2022/08/16 19:25:47;;;;;;;9.10;8.13;;;26.40;99.90;;;;;;10215403;29;20207;-94
2022/08/16 19:30:54;;;;;;;7.88;7.15;;;26.40;99.90;;;;;;10217208;29;20215;-94
2022/08/16 19:35:57;;;;;;;9.45;8.45;;;26.30;99.90;;;;;;10215294;29;20231;-93
2022/08/16 19:40:59;;;;;;;8.77;7.93;;;26.30;99.90;;;;;;10200515;29;20195;-94
2022/08/16 19:46:04;;;;;;;9.45;7.68;;;26.30;99.90;;;;;;10216220;29;20203;-95
2022/08/16 19:51:08;;;;;;;8.77;7.93;;;26.30;99.90;;;;;;10199941;29;20199;-94
2022/08/16 19:56:10;;;;;;;8.70;7.57;;;26.20;99.90;;;;;;10215532;29;20258;-95
2022/08/16 20:01:14;;;;;;;8.23;7.43;;;26.30;99.90;;;;;;10200709;29;20199;-95
2022/08/16 20:06:20;;;;;;;8.15;7.32;;;26.20;99.90;;;;;;10216130;29;20643;-94
2022/08/16 20:11:39;;;;;;;8.07;6.90;;;26.20;99.90;;;;;;10202049;29;20226;-95
2022/08/16 20:16:43;;;;;;;8.65;7.75;;;26.20;99.90;;;;;;10231920;28;20227;-95
2022/08/16 20:21:46;;;;;;;9.20;7.68;;;26.20;99.90;;;;;;10208736;29;20289;-96
2022/08/16 20:26:49;;;;;;;8.55;7.65;;;26.20;99.90;;;;;;10216416;29;20207;-96
2022/08/16 20:31:51;;;;;;;8.23;7.43;;;26.10;99.90;;;;;;10219650;28;20231;-94
2022/08/16 20:36:54;;;;;;;7.65;7.00;;;26.10;99.90;;;;;;10207305;29;20258;-95
2022/08/16 20:41:57;;;;;;;7.45;6.75;;;26.00;99.90;;;;;;10233573;29;20254;-91
2022/08/16 20:47:00;;;;;;;21.05;8.65;;;25.90;99.90;;;;;;10223811;29;20223;-92
2022/08/16 20:52:07;;;;;;;10.82;7.40;;;25.40;99.90;;;;;;10218090;28;20223;-94
2022/08/16 20:57:11;;;;;;;11.23;8.30;;;25.20;99.90;;;;;;10205227;29;20211;-93
2022/08/16 21:02:21;;;;;;;13.77;8.52;;;25.40;99.90;;;;;;10213021;29;20215;-93
2022/08/16 21:07:24;;;;;;;11.57;7.43;;;25.50;99.90;;;;;;10209004;29;20841;-93
2022/08/16 21:12:27;;;;;;;21.38;8.52;;;25.60;99.90;;;;;;10221901;29;20278;-92
2022/08/16 21:17:36;;;;;;;18.27;9.40;;;24.40;99.90;;;;;;10222769;29;20271;-94
2022/08/16 21:22:50;;;;;;;15.15;9.95;;;21.40;99.90;;;;;;10244335;29;20273;-95
2022/08/16 21:27:56;;;;;;;15.82;9.93;;;20.40;99.90;;;;;;10213077;29;20203;-95
2022/08/16 21:33:19;;;;;;;12.18;9.93;;;20.00;99.90;;;;;;10201739;29;20254;-93
2022/08/16 21:38:22;;;;;;;14.57;7.80;;;19.90;99.90;;;;;;10203824;29;20231;-94
2022/08/16 21:43:32;;;;;;;14.02;8.73;;;21.90;99.90;;;;;;10213394;29;20211;-95
2022/08/16 21:48:36;;;;;;;10.27;8.10;;;23.30;99.90;;;;;;10206742;29;20673;-95
2022/08/16 22:22:00;;;;;;;8.15;7.20;;;25.30;99.90;;;;;;12085519;23;20238;-95
2022/08/16 22:27:03;;;;;;;10.50;7.55;;;25.30;99.90;;;;;;10258077;28;20249;-96
2022/08/16 22:32:06;;;;;;;8.88;7.35;;;25.40;99.90;;;;;;10256392;28;20635;-96
2022/08/16 22:37:09;;;;;;;7.63;6.85;;;25.40;99.90;;;;;;10236657;29;20335;-94
2022/08/16 22:42:12;;;;;;;9.02;6.80;;;25.40;99.90;;;;;;10256945;29;20264;-96
2022/08/16 22:47:14;;;;;;;11.18;8.05;;;25.50;99.90;;;;;;10255715;29;20210;-95
2022/08/16 22:52:19;;;;;;;10.02;7.18;;;25.50;99.90;;;;;;10255132;29;20641;-95
2022/08/16 22:57:43;;;;;;;8.63;7.22;;;25.40;99.90;;;;;;10221900;28;20230;-95
2022/08/16 23:03:04;;;;;;;8.63;7.30;;;25.40;99.90;;;;;;10217393;29;20584;-95
2022/08/16 23:08:09;;;;;;;7.88;6.97;;;25.50;99.90;;;;;;10217681;29;20292;-95
2022/08/16 23:13:12;;;;;;;7.43;6.70;;;25.60;99.90;;;;;;10219876;29;20227;-94
2022/08/16 23:18:16;;;;;;;11.05;6.68;;;25.60;99.90;;;;;;10215760;29;20203;-94
2022/08/16 23:23:19;;;;;;;10.23;7.30;;;25.50;99.90;;;;;;10216898;29;20231;-94
2022/08/16 23:28:26;;;;;;;8.07;7.28;;;25.50;99.90;;;;;;10233389;28;20274;-96
2022/08/16 23:33:28;;;;;;;10.20;7.85;;;25.50;99.90;;;;;;10217897;29;20586;-95
2022/08/16 23:38:33;;;;;;;9.77;7.60;;;25.50;99.90;;;;;;10233817;29;20195;-94
2022/08/16 23:43:42;;;;;;;9.35;6.88;;;25.50;99.90;;;;;;10219381;29;20215;-95
2022/08/16 23:48:45;;;;;;;11.55;7.45;;;25.50;99.90;;;;;;10200752;29;20234;-95
2022/08/16 23:54:10;;;;;;;7.45;6.68;;;25.50;99.90;;;;;;10219363;29;20215;-94
2022/08/16 23:59:12;;;;;;;8.65;6.85;;;25.40;99.90;;;;;;10234603;29;20246;-95
